Capitol Logistics 1139


EBLG
Liège Airport
Liege, BE
LSGG
Geneve-Cointrin Airport
Geneva, CH

Route Details

Aircraft Information
Primary: Boeing 737-800BCF
Backup: Not Available
Route Data
Distance: 283nm
Sched. Duration: 1h 00m
Avg. Duration: 1h 11m (+12m)
Times Flown: 5
Recm'd Route: Not Available
Planned Altitude: 33,000ft
Origin Wx: EBLG 190820Z 21025G41KT 7000 -RA SCT009 BKN015 04/03 Q1009 TEMPO 21020G35KT 4000 RA BKN008
Dest. Wx: LSGG 190820Z VRB03KT CAVOK M04/M05 Q1023 R04/19//// NOSIG
Notes:

Financial History
Total Freight: 174,769lbs
Average Load: 34,954lbs/flt
Fuel Used: 32,748lbs
Avg. Fuel Used: 6,550lbs/flt
Fuel Expense: $36,350
Avg. Fuel Expense: $7,270
Avg. Fuel Cost: $1.11/lbs
Total Gross Income: $371,292
Pilot Pay: $995
Total Expenses: $40,359
Total Revenue: $293,406
Average Revenue: $74,258.32